M I D A S
Marine Information and Data Acquisition System
Tripno 272 of the Zeeleeuw from 2002-05-02 06:36:12 to 2002-05-02 16:54:28
Back to CruiseResearch ActivitiesStationsMapUnderway DataData graphs

EquipmentUnitsComments
TimeDGPSUTC
LatitudeDGPSDM.mWGS84
LongitudeDGPSDM.mWGS84
SpeedMeteo Stationm/sRelative wind speed
DirectionMeteo StationdegRelative wind direction
TemperatureMeteo Stationdeg CelciusAir temperature
PressureMeteo StationPaAtmospheric pressure
HumidityMeteo Station%Relative humidity
Missing or incorrect values are displayed as -999
Metereological data collected by the RV Zeeleeuw from 2002-05-02 06:36:12 to 2002-05-02 16:54:28
Time Latitude Longitude Speed Direction Temperature Pressure Humidity
2002-05-02 06:37 51°13.691 2°55.845 4.8 20 8.8 100540 82
2002-05-02 06:38 51°13.695 2°55.755 5.1 16 8.8 100540 82
2002-05-02 06:39 51°13.703 2°55.732 4.3 286 8.8 100540 82
2002-05-02 06:40 51°13.7 2°55.734 3.3 295 8.8 100530 82
2002-05-02 06:41 51°13.681 2°55.718 2.5 286 8.9 100540 83
2002-05-02 06:42 51°13.682 2°55.716 2.5 278 8.9 100540 83
2002-05-02 06:43 51°13.691 2°55.712 2.3 245 8.9 100540 83
2002-05-02 06:44 51°13.71 2°55.701 3.9 238 8.9 100550 83
2002-05-02 06:45 51°13.762 2°55.667 5.7 239 8.9 100540 83
2002-05-02 06:46 51°13.841 2°55.62 6.5 237 9 100540 83
2002-05-02 06:47 51°13.926 2°55.558 5.7 237 9 100550 83
2002-05-02 06:48 51°14.019 2°55.501 7.1 237 9 100550 83
2002-05-02 06:49 51°14.112 2°55.441 6.7 234 8.9 100540 82
2002-05-02 06:50 51°14.2 2°55.372 5.8 236 8.9 100550 83
2002-05-02 06:51 51°14.272 2°55.269 5.7 230 8.9 100550 83
2002-05-02 06:52 51°14.331 2°55.138 7.2 219 8.9 100550 83
2002-05-02 06:53 51°14.396 2°54.957 10.2 222 8.9 100550 83
2002-05-02 06:54 51°14.494 2°54.683 10.2 225 8.9 100540 83
2002-05-02 06:55 51°14.6 2°54.401 9.8 220 8.9 100540 83
2002-05-02 06:56 51°14.704 2°54.125 9.8 223 9 100540 83
2002-05-02 06:57 51°14.81 2°53.852 10 219 9 100540 83
2002-05-02 06:58 51°14.898 2°53.558 10.4 216 9 100540 82
2002-05-02 06:59 51°14.995 2°53.262 11.5 219 9 100540 83
2002-05-02 07:00 51°15.095 2°52.95 11 217 9 100540 81
2002-05-02 07:01 51°15.193 2°52.642 11.1 220 9 100540 80
2002-05-02 07:02 51°15.292 2°52.337 10.7 218 9 100540 81
2002-05-02 07:03 51°15.392 2°52.037 12.1 217 9 100540 80
2002-05-02 07:04 51°15.488 2°51.747 10.8 217 9 100530 79
2002-05-02 07:05 51°15.584 2°51.458 10.7 223 9 100540 79
2002-05-02 07:06 51°15.676 2°51.157 11.3 221 9 100540 78
2002-05-02 07:07 51°15.756 2°50.846 11.4 216 9.1 100540 79
2002-05-02 07:08 51°15.786 2°50.507 10 204 9 100550 78
2002-05-02 07:09 51°15.795 2°50.162 10 214 9 100540 77
2002-05-02 07:10 51°15.814 2°49.802 10 213 9 100550 77
2002-05-02 07:11 51°15.832 2°49.44 11.3 216 9 100550 77
2002-05-02 07:12 51°15.855 2°49.085 10.6 214 9 100550 77
2002-05-02 07:13 51°15.883 2°48.714 11.7 216 9 100550 76
2002-05-02 07:14 51°15.917 2°48.352 11.4 224 9 100550 76
2002-05-02 07:15 51°15.996 2°48.007 12.2 219 9 100550 76
2002-05-02 07:16 51°16.072 2°47.668 11.1 224 9.1 100550 77
2002-05-02 07:17 51°16.155 2°47.321 11.6 221 9 100560 77
2002-05-02 07:18 51°16.23 2°46.983 10.2 220 9 100560 76
2002-05-02 07:19 51°16.304 2°46.633 10.8 220 9 100560 76
2002-05-02 07:20 51°16.371 2°46.29 9.8 218 9 100560 77
2002-05-02 07:21 51°16.431 2°45.938 11.6 221 9.1 100560 77
2002-05-02 07:22 51°16.501 2°45.59 11.5 225 9 100560 76
2002-05-02 07:23 51°16.625 2°45.284 11.3 231 9 100560 76
2002-05-02 07:24 51°16.804 2°45.055 11.3 234 9 100560 76
2002-05-02 07:25 51°16.981 2°44.829 11.2 231 9 100560 76
2002-05-02 07:26 51°17.161 2°44.588 11.6 229 9 100560 76
2002-05-02 07:27 51°17.351 2°44.396 10.1 241 8.9 100560 76
2002-05-02 07:28 51°17.52 2°44.368 6.9 267 8.9 100570 77
2002-05-02 07:29 51°17.589 2°44.423 3.5 299 9 100580 78
2002-05-02 07:30 51°17.599 2°44.451 3.1 350 8.9 100580 77
2002-05-02 07:31 51°17.603 2°44.471 2.1 353 8.9 100590 77
2002-05-02 07:32 51°17.608 2°44.487 0.4 332 8.9 100580 77
2002-05-02 07:33 51°17.613 2°44.499 0.9 311 8.9 100590 78
2002-05-02 07:34 51°17.619 2°44.507 2.2 316 8.9 100580 78
2002-05-02 07:35 51°17.628 2°44.521 4.3 294 8.9 100580 78
2002-05-02 07:36 51°17.609 2°44.618 0.1 123 8.9 100580 78
2002-05-02 07:37 51°17.536 2°44.542 5.3 205 9 100580 78
2002-05-02 07:38 51°17.54 2°44.396 5 212 9 100580 78
2002-05-02 07:39 51°17.55 2°44.344 3.1 172 9 100580 78
2002-05-02 07:40 51°17.552 2°44.339 3.9 170 9 100580 79
2002-05-02 07:41 51°17.554 2°44.328 3.6 159 9 100580 79
2002-05-02 07:42 51°17.554 2°44.316 3.3 175 9 100580 78
2002-05-02 07:43 51°17.553 2°44.303 3.9 160 9 100590 78
2002-05-02 07:44 51°17.551 2°44.288 3.4 163 9 100590 78
2002-05-02 07:45 51°17.548 2°44.271 3.9 159 9 100590 79
2002-05-02 07:46 51°17.544 2°44.254 2.8 157 9 100590 77
2002-05-02 07:47 51°17.54 2°44.235 3.7 150 9 100590 79
2002-05-02 07:48 51°17.535 2°44.216 3.7 149 9 100590 78
2002-05-02 07:49 51°17.529 2°44.197 3.7 154 8.9 100590 78
2002-05-02 07:50 51°17.524 2°44.178 3 163 8.9 100590 78
2002-05-02 07:51 51°17.52 2°44.158 3.3 154 8.9 100590 79
2002-05-02 07:52 51°17.514 2°44.132 3.7 177 9 100590 79
2002-05-02 07:53 51°17.554 2°44.038 7 249 8.9 100590 79
2002-05-02 07:54 51°17.62 2°44.122 3.2 308 8.9 100590 79
2002-05-02 07:55 51°17.562 2°44.276 3.1 295 8.9 100600 79
2002-05-02 07:56 51°17.542 2°44.429 2.6 297 8.9 100600 79
2002-05-02 07:57 51°17.549 2°44.45 3.9 294 9 100600 79
2002-05-02 07:58 51°17.557 2°44.449 3.7 291 9 100600 80
2002-05-02 07:59 51°17.565 2°44.445 3.6 294 9.1 100600 80
2002-05-02 08:00 51°17.572 2°44.439 3.8 290 9.1 100600 81
2002-05-02 08:01 51°17.578 2°44.431 3.4 286 9.1 100600 81
2002-05-02 08:02 51°17.583 2°44.423 4.3 279 9.1 100600 80
2002-05-02 08:03 51°17.587 2°44.413 3.6 275 9 100600 80
2002-05-02 08:04 51°17.591 2°44.403 3.9 268 9 100600 80
2002-05-02 08:05 51°17.593 2°44.393 4.5 274 9 100600 79
2002-05-02 08:06 51°17.595 2°44.382 4.1 276 8.9 100610 79
2002-05-02 08:07 51°17.6 2°44.372 4.5 269 9 100610 79
2002-05-02 08:08 51°17.613 2°44.364 4.6 281 9 100610 79
2002-05-02 08:09 51°17.631 2°44.362 4.6 289 9 100610 79
2002-05-02 08:10 51°17.647 2°44.37 2.6 307 9 100610 79
2002-05-02 08:11 51°17.654 2°44.379 3.2 306 9 100610 79
2002-05-02 08:12 51°17.657 2°44.393 1 343 9 100610 79
2002-05-02 08:13 51°17.652 2°44.41 3.2 7 9 100610 79
2002-05-02 08:14 51°17.634 2°44.422 2.7 34 9 100620 78
2002-05-02 08:15 51°17.611 2°44.42 2.6 61 9.1 100620 79
2002-05-02 08:16 51°17.586 2°44.403 3 92 9.2 100620 77
2002-05-02 08:17 51°17.562 2°44.371 2.9 132 9.2 100620 77
2002-05-02 08:18 51°17.545 2°44.327 3.2 155 9.2 100620 77
2002-05-02 08:19 51°17.534 2°44.279 3.9 171 9.2 100620 77
2002-05-02 08:20 51°17.529 2°44.23 4.1 190 9.2 100620 77
2002-05-02 08:21 51°17.531 2°44.184 4.3 218 9.1 100620 77
2002-05-02 08:22 51°17.539 2°44.142 5 221 9.1 100620 78
2002-05-02 08:23 51°17.561 2°44.086 6.7 225 9.2 100620 78
2002-05-02 08:24 51°17.571 2°43.89 8.7 206 9.1 100610 77
2002-05-02 08:25 51°17.544 2°43.552 10.3 214 9.1 100610 78
2002-05-02 08:26 51°17.506 2°43.218 9.3 207 9.1 100610 77
2002-05-02 08:27 51°17.474 2°42.868 9.4 211 9.1 100610 77
2002-05-02 08:28 51°17.444 2°42.525 8.9 189 9.1 100600 77
2002-05-02 08:29 51°17.385 2°42.193 7.9 185 9.1 100600 72
2002-05-02 08:30 51°17.335 2°41.856 8.6 189 9.2 100610 73
2002-05-02 08:31 51°17.285 2°41.521 10 198 9.2 100610 74
2002-05-02 08:32 51°17.236 2°41.316 5.6 158 9.3 100610 72
2002-05-02 08:33 51°17.223 2°41.26 4.6 199 9.3 100620 70
2002-05-02 08:34 51°17.208 2°41.255 6.2 214 9.3 100620 70
2002-05-02 08:35 51°17.255 2°41.225 8.1 282 9.3 100610 70
2002-05-02 08:36 51°17.28 2°41.343 3.6 311 9.4 100620 70
2002-05-02 08:37 51°17.278 2°41.413 6.3 299 9.4 100620 71
2002-05-02 08:38 51°17.281 2°41.414 6.1 285 9.4 100620 70
2002-05-02 08:39 51°17.281 2°41.41 6.4 287 9.5 100620 70
2002-05-02 08:40 51°17.28 2°41.403 6 291 9.4 100620 67
2002-05-02 08:41 51°17.277 2°41.395 6.9 287 9.5 100630 68
2002-05-02 08:42 51°17.272 2°41.387 6.2 287 9.5 100630 67
2002-05-02 08:43 51°17.265 2°41.377 5.9 295 9.5 100630 67
2002-05-02 08:44 51°17.258 2°41.368 7.4 295 9.5 100630 70
2002-05-02 08:45 51°17.251 2°41.359 5.7 295 9.5 100630 69
2002-05-02 08:46 51°17.243 2°41.35 6.3 296 9.6 100630 70
2002-05-02 08:47 51°17.235 2°41.341 6.2 293 9.5 100630 70
2002-05-02 08:48 51°17.226 2°41.331 5.3 303 9.5 100640 69
2002-05-02 08:49 51°17.218 2°41.322 6.4 291 9.6 100640 71
2002-05-02 08:50 51°17.209 2°41.311 5.5 299 9.5 100640 69
2002-05-02 08:51 51°17.199 2°41.301 2 316 9.5 100640 70
2002-05-02 08:52 51°17.19 2°41.292 1.8 326 9.5 100650 70
2002-05-02 08:53 51°17.181 2°41.284 2.9 318 9.4 100650 71
2002-05-02 08:54 51°17.173 2°41.276 2.3 315 9.4 100650 72
2002-05-02 08:55 51°17.166 2°41.268 1.5 324 9.4 100650 72
2002-05-02 08:56 51°17.18 2°41.277 6.7 274 9.4 100650 71
2002-05-02 08:57 51°17.249 2°41.303 8.6 280 9.4 100640 70
2002-05-02 08:58 51°17.299 2°41.353 5.5 304 9.4 100640 72
2002-05-02 08:59 51°17.297 2°41.346 1.6 326 9.4 100650 72
2002-05-02 09:00 51°17.29 2°41.337 5.6 358 9.3 100650 71
2002-05-02 09:01 51°17.281 2°41.326 5.3 3 9.3 100660 72
2002-05-02 09:02 51°17.27 2°41.315 5.8 359 9.3 100660 71
2002-05-02 09:03 51°17.26 2°41.302 2.2 337 9.3 100670 72
2002-05-02 09:04 51°17.249 2°41.286 1.2 318 9.3 100660 71
2002-05-02 09:05 51°17.238 2°41.268 0.8 328 9.3 100660 71
2002-05-02 09:06 51°17.226 2°41.249 3 304 9.2 100660 70
2002-05-02 09:07 51°17.213 2°41.229 1.3 360 9.3 100660 72
2002-05-02 09:08 51°17.2 2°41.21 1.5 343 9.3 100660 72
2002-05-02 09:09 51°17.191 2°41.201 0.5 346 9.3 100660 73
2002-05-02 09:10 51°17.188 2°41.204 2.6 313 9.3 100660 73
2002-05-02 09:11 51°17.189 2°41.211 3.6 336 9.2 100660 72
2002-05-02 09:12 51°17.194 2°41.223 4.9 308 9.2 100660 74
2002-05-02 09:13 51°17.202 2°41.233 5.7 296 9.2 100660 73
2002-05-02 09:14 51°17.213 2°41.241 5.2 299 9.2 100660 73
2002-05-02 09:15 51°17.223 2°41.25 6.5 296 9.2 100660 74
2002-05-02 09:16 51°17.232 2°41.262 4.7 301 9.2 100660 75
2002-05-02 09:17 51°17.239 2°41.276 4.1 290 9.3 100660 75
2002-05-02 09:18 51°17.243 2°41.293 4.7 300 9.2 100660 75
2002-05-02 09:19 51°17.25 2°41.316 6.4 296 9.2 100660 75
2002-05-02 09:20 51°17.33 2°41.298 9 223 9.2 100660 74
2002-05-02 09:21 51°17.303 2°41.09 4.9 140 9.2 100650 74
2002-05-02 09:22 51°17.121 2°41.044 4.1 150 9.2 100670 74
2002-05-02 09:23 51°16.898 2°41.007 4.4 166 9.2 100670 73
2002-05-02 09:24 51°16.668 2°40.935 4.2 175 9.1 100670 73
2002-05-02 09:25 51°16.441 2°40.847 3.3 174 9.1 100670 72
2002-05-02 09:26 51°16.214 2°40.748 3.8 173 9.1 100670 71
2002-05-02 09:27 51°15.985 2°40.668 4.8 169 9.1 100680 72
2002-05-02 09:28 51°15.756 2°40.603 2.3 171 9.1 100670 72
2002-05-02 09:29 51°15.527 2°40.596 2.2 170 9.1 100680 73
2002-05-02 09:30 51°15.306 2°40.647 1.4 239 9.2 100680 73
2002-05-02 09:31 51°15.091 2°40.731 1.2 253 9.2 100680 72
2002-05-02 09:32 51°14.875 2°40.818 1.5 203 9.2 100680 72
2002-05-02 09:33 51°14.661 2°40.916 2.4 271 9.2 100690 71
2002-05-02 09:34 51°14.453 2°41.047 1.6 269 9.2 100680 71
2002-05-02 09:35 51°14.255 2°41.143 1.1 87 9.3 100680 71
2002-05-02 09:36 51°14.125 2°41.141 2.8 73 9.3 100680 71
2002-05-02 09:37 51°14.055 2°41.138 5.3 74 9.4 100680 72
2002-05-02 09:38 51°14.042 2°41.114 6 99 9.4 100680 73
2002-05-02 09:39 51°14.027 2°41.087 5.7 105 9.4 100680 72
2002-05-02 09:40 51°14.01 2°41.058 5.3 104 9.3 100680 72
2002-05-02 09:41 51°14.028 2°41.064 6 82 9.3 100680 73
2002-05-02 09:42 51°14.076 2°41.07 7.6 68 9.3 100690 74
2002-05-02 09:43 51°14.1 2°41.054 5.1 32 9.2 100690 74
2002-05-02 09:44 51°14.086 2°41.031 4.6 24 9.3 100700 74
2002-05-02 09:45 51°14.075 2°41.003 4.9 11 9.3 100690 74
2002-05-02 09:46 51°14.06 2°40.982 4.5 4 9.3 100700 74
2002-05-02 09:47 51°14.068 2°41.034 7.9 265 9.3 100690 74
2002-05-02 09:48 51°14.134 2°41.099 6.8 267 9.3 100680 73
2002-05-02 09:49 51°14.147 2°41.092 5.9 273 9.3 100690 75
2002-05-02 09:50 51°14.152 2°41.079 6.1 270 9.3 100690 73
2002-05-02 09:51 51°14.153 2°41.064 6 281 9.3 100690 74
2002-05-02 09:52 51°14.152 2°41.049 4.9 278 9.3 100690 74
2002-05-02 09:53 51°14.149 2°41.032 5.1 276 9.3 100690 74
2002-05-02 09:54 51°14.145 2°41.015 5.3 277 9.3 100700 75
2002-05-02 09:55 51°14.139 2°40.999 5.3 282 9.4 100690 77
2002-05-02 09:56 51°14.13 2°40.982 5.3 291 9.3 100690 76
2002-05-02 09:57 51°14.122 2°40.966 5.4 297 9.3 100690 77
2002-05-02 09:58 51°14.113 2°40.949 5.5 298 9.3 100700 76
2002-05-02 09:59 51°14.104 2°40.931 5.8 301 9.3 100700 77
2002-05-02 10:00 51°14.095 2°40.914 5.7 297 9.3 100700 75
2002-05-02 10:01 51°14.086 2°40.897 4.6 292 9.3 100700 75
2002-05-02 10:02 51°14.076 2°40.878 4.8 295 9.3 100690 76
2002-05-02 10:03 51°14.065 2°40.858 5.1 287 9.4 100700 77
2002-05-02 10:04 51°14.054 2°40.839 5.5 302 9.4 100700 76
2002-05-02 10:05 51°14.052 2°40.832 5.6 294 9.4 100690 76
2002-05-02 10:06 51°14.056 2°40.836 5.1 293 9.4 100700 76
2002-05-02 10:07 51°14.063 2°40.855 4.7 301 9.3 100690 75
2002-05-02 10:08 51°14.066 2°40.886 1.4 326 9.3 100690 75
2002-05-02 10:09 51°14.064 2°40.926 0.3 306 9.3 100700 75
2002-05-02 10:10 51°14.054 2°40.968 0.5 336 9.3 100700 76
2002-05-02 10:11 51°14.034 2°41.006 3.6 14 9.3 100700 77
2002-05-02 10:12 51°14.004 2°41.034 3.7 32 9.3 100700 76
2002-05-02 10:13 51°13.967 2°41.049 2.4 62 9.4 100710 76
2002-05-02 10:14 51°13.922 2°41.053 4.2 65 9.6 100710 75
2002-05-02 10:15 51°13.859 2°41.031 3.8 145 9.5 100710 72
2002-05-02 10:16 51°13.763 2°40.898 5.6 175 9.4 100710 74
2002-05-02 10:17 51°13.644 2°40.72 6.6 179 9.3 100700 76
2002-05-02 10:18 51°13.512 2°40.517 5.6 180 9.2 100700 76
2002-05-02 10:19 51°13.378 2°40.313 5.9 182 9.2 100700 76
2002-05-02 10:20 51°13.248 2°40.104 5.5 181 9.2 100700 77
2002-05-02 10:21 51°13.12 2°39.896 6.1 181 9.2 100700 76
2002-05-02 10:22 51°12.99 2°39.689 6.1 178 9.2 100700 76
2002-05-02 10:23 51°12.864 2°39.476 6.5 173 9.2 100700 75
2002-05-02 10:24 51°12.738 2°39.264 7 176 9.2 100710 74
2002-05-02 10:25 51°12.612 2°39.051 5.5 184 9.2 100710 73
2002-05-02 10:26 51°12.485 2°38.838 6.2 183 9.2 100710 74
2002-05-02 10:27 51°12.359 2°38.628 5.6 180 9.2 100710 73
2002-05-02 10:28 51°12.234 2°38.416 5.2 178 9.1 100710 71
2002-05-02 10:29 51°12.109 2°38.202 4.5 186 9.1 100710 71
2002-05-02 10:30 51°11.984 2°37.987 6.1 193 9.2 100710 72
2002-05-02 10:31 51°11.858 2°37.772 6.3 188 9.2 100710 73
2002-05-02 10:32 51°11.732 2°37.558 4.9 180 9.2 100710 70
2002-05-02 10:33 51°11.607 2°37.343 7.7 191 9.3 100720 71
2002-05-02 10:34 51°11.48 2°37.129 6.8 192 9.3 100720 69
2002-05-02 10:35 51°11.354 2°36.916 7.4 196 9.3 100720 71
2002-05-02 10:36 51°11.228 2°36.701 6.7 193 9.3 100720 69
2002-05-02 10:37 51°11.101 2°36.487 6.3 190 9.3 100720 69
2002-05-02 10:38 51°10.976 2°36.274 6.6 190 9.3 100720 68
2002-05-02 10:39 51°10.851 2°36.062 5.3 187 9.3 100730 68
2002-05-02 10:40 51°10.725 2°35.849 6.2 190 9.4 100730 69
2002-05-02 10:41 51°10.611 2°35.626 6.7 194 9.3 100730 67
2002-05-02 10:42 51°10.495 2°35.403 6.4 198 9.3 100730 67
2002-05-02 10:43 51°10.38 2°35.182 7.1 198 9.4 100730 69
2002-05-02 10:44 51°10.265 2°34.96 7.3 204 9.4 100730 71
2002-05-02 10:45 51°10.152 2°34.739 7.4 207 9.4 100740 71
2002-05-02 10:46 51°10.038 2°34.522 7.9 205 9.4 100730 71
2002-05-02 10:47 51°9.924 2°34.305 7.8 199 9.3 100730 70
2002-05-02 10:48 51°9.81 2°34.087 6.9 204 9.3 100740 71
2002-05-02 10:49 51°9.693 2°33.873 7.3 206 9.3 100740 70
2002-05-02 10:50 51°9.577 2°33.658 6.6 199 9.3 100740 71
2002-05-02 10:51 51°9.459 2°33.445 6.4 194 9.3 100740 71
2002-05-02 10:52 51°9.341 2°33.229 6.9 196 9.3 100740 70
2002-05-02 10:53 51°9.226 2°33.042 5.8 204 9.3 100750 70
2002-05-02 10:54 51°9.166 2°32.889 4.7 211 9.4 100750 71
2002-05-02 10:55 51°9.13 2°32.767 4.3 173 9.4 100750 70
2002-05-02 10:56 51°9.086 2°32.696 3.6 149 9.4 100750 71
2002-05-02 10:57 51°9.041 2°32.663 3.1 110 9.4 100760 70
2002-05-02 10:58 51°9.001 2°32.65 3.3 81 9.4 100760 70
2002-05-02 10:59 51°8.97 2°32.65 3.5 50 9.5 100760 71
2002-05-02 11:00 51°8.949 2°32.654 3.6 23 9.6 100760 72
2002-05-02 11:01 51°8.94 2°32.664 0.2 328 9.6 100770 69
2002-05-02 11:02 51°8.947 2°32.69 2.7 298 9.6 100760 71
2002-05-02 11:03 51°8.965 2°32.726 3.5 308 9.6 100770 70
2002-05-02 11:04 51°8.991 2°32.766 2.4 319 9.6 100770 71
2002-05-02 11:05 51°9.026 2°32.783 3.7 303 9.6 100770 70
2002-05-02 11:06 51°9.049 2°32.777 4.5 301 9.5 100770 69
2002-05-02 11:07 51°9.066 2°32.762 2.9 300 9.5 100770 69
2002-05-02 11:08 51°9.077 2°32.751 4 307 9.5 100770 69
2002-05-02 11:09 51°9.084 2°32.751 3.4 7 9.5 100770 69
2002-05-02 11:10 51°9.083 2°32.761 1.6 340 9.6 100770 72
2002-05-02 11:11 51°9.074 2°32.776 1.1 333 9.5 100770 69
2002-05-02 11:12 51°9.067 2°32.791 3.3 359 9.5 100770 69
2002-05-02 11:13 51°9.066 2°32.8 2.1 298 9.5 100780 70
2002-05-02 11:14 51°9.073 2°32.803 5 294 9.5 100770 70
2002-05-02 11:15 51°9.084 2°32.804 3.8 296 9.5 100770 69
2002-05-02 11:16 51°9.095 2°32.808 2.5 316 9.5 100780 70
2002-05-02 11:17 51°9.102 2°32.817 1.8 321 9.5 100780 70
2002-05-02 11:18 51°9.109 2°32.823 0.9 327 9.5 100780 69
2002-05-02 11:19 51°9.11 2°32.825 3 359 9.6 100780 71
2002-05-02 11:20 51°9.108 2°32.828 1.7 345 9.5 100780 69
2002-05-02 11:21 51°9.105 2°32.828 3.8 354 9.5 100780 69
2002-05-02 11:22 51°9.1 2°32.827 1 344 9.5 100770 69
2002-05-02 11:23 51°9.094 2°32.826 2.4 351 9.5 100780 69
2002-05-02 11:24 51°9.088 2°32.82 1.5 340 9.5 100780 68
2002-05-02 11:25 51°9.083 2°32.815 1.2 342 9.5 100770 69
2002-05-02 11:26 51°9.078 2°32.811 0.2 338 9.5 100780 70
2002-05-02 11:27 51°9.073 2°32.803 0.5 305 9.5 100780 70
2002-05-02 11:28 51°9.069 2°32.797 0.9 358 9.5 100780 69
2002-05-02 11:29 51°9.066 2°32.797 2.8 352 9.5 100780 69
2002-05-02 11:30 51°9.066 2°32.804 0.3 344 9.5 100780 70
2002-05-02 11:31 51°9.069 2°32.815 1.5 309 9.6 100780 69
2002-05-02 11:32 51°9.077 2°32.826 0.5 332 9.6 100780 69
2002-05-02 11:33 51°9.087 2°32.837 1.2 313 9.5 100780 68
2002-05-02 11:34 51°9.099 2°32.845 1.5 325 9.6 100790 70
2002-05-02 11:35 51°9.113 2°32.847 1.7 326 9.5 100780 68
2002-05-02 11:36 51°9.128 2°32.842 2.6 302 9.6 100790 69
2002-05-02 11:37 51°9.144 2°32.836 2.9 302 9.6 100780 69
2002-05-02 11:38 51°9.157 2°32.839 1.3 344 9.6 100790 70
2002-05-02 11:39 51°9.163 2°32.853 3.3 3 9.6 100790 70
2002-05-02 11:40 51°9.161 2°32.874 3.2 16 9.6 100790 68
2002-05-02 11:41 51°9.149 2°32.895 2.6 45 9.6 100790 69
2002-05-02 11:42 51°9.132 2°32.91 3 63 9.8 100790 69
2002-05-02 11:43 51°9.11 2°32.919 2.7 85 9.8 100790 67
2002-05-02 11:44 51°9.082 2°32.913 2.8 117 9.7 100790 67
2002-05-02 11:45 51°9.055 2°32.896 3.2 146 9.8 100790 69
2002-05-02 11:46 51°9.016 2°32.862 3.7 189 9.7 100790 68
2002-05-02 11:47 51°8.901 2°32.744 5.7 196 9.6 100780 67
2002-05-02 11:48 51°8.741 2°32.67 5.9 200 9.6 100780 68
2002-05-02 11:49 51°8.576 2°32.571 6.1 194 9.6 100790 68
2002-05-02 11:50 51°8.417 2°32.492 4.5 180 9.5 100790 68
2002-05-02 11:51 51°8.334 2°32.444 5 100 9.6 100800 70
2002-05-02 11:52 51°8.309 2°32.446 1.4 7 9.6 100800 69
2002-05-02 11:53 51°8.356 2°32.497 6.5 267 9.6 100790 68
2002-05-02 11:54 51°8.419 2°32.472 3.6 307 9.7 100790 68
2002-05-02 11:55 51°8.424 2°32.463 3.6 355 9.6 100800 67
2002-05-02 11:56 51°8.419 2°32.459 3.2 345 9.7 100800 69
2002-05-02 11:57 51°8.412 2°32.454 1.3 329 9.7 100800 69
2002-05-02 11:58 51°8.406 2°32.446 0.7 348 9.7 100790 68
2002-05-02 11:59 51°8.399 2°32.435 1.3 331 9.7 100800 67
2002-05-02 12:00 51°8.393 2°32.422 2 331 9.8 100800 69
2002-05-02 12:01 51°8.386 2°32.407 1.7 331 9.8 100800 68
2002-05-02 12:02 51°8.379 2°32.391 1.6 316 9.8 100800 68
2002-05-02 12:03 51°8.371 2°32.375 2 326 9.8 100800 68
2002-05-02 12:04 51°8.364 2°32.358 4.8 307 9.9 100800 70
2002-05-02 12:05 51°8.356 2°32.343 4.6 313 9.8 100800 72
2002-05-02 12:06 51°8.348 2°32.33 5.3 288 9.7 100790 72
2002-05-02 12:07 51°8.339 2°32.316 6.5 311 9.7 100800 72
2002-05-02 12:08 51°8.331 2°32.303 7.3 302 9.6 100800 72
2002-05-02 12:09 51°8.344 2°32.309 3.8 333 9.5 100800 72
2002-05-02 12:10 51°8.403 2°32.441 0.9 327 9.5 100800 73
2002-05-02 12:11 51°8.383 2°32.638 1.9 339 9.5 100810 73
2002-05-02 12:12 51°8.405 2°32.701 3.7 298 9.6 100800 72
2002-05-02 12:13 51°8.408 2°32.698 6.9 296 9.5 100800 72
2002-05-02 12:14 51°8.409 2°32.688 6.6 292 9.5 100800 73
2002-05-02 12:15 51°8.407 2°32.676 7.8 296 9.6 100800 74
2002-05-02 12:16 51°8.404 2°32.664 6.5 302 9.5 100800 73
2002-05-02 12:17 51°8.4 2°32.651 6.5 302 9.5 100800 73
2002-05-02 12:18 51°8.397 2°32.64 7.7 297 9.5 100810 74
2002-05-02 12:19 51°8.392 2°32.63 7.6 296 9.4 100810 73
2002-05-02 12:20 51°8.386 2°32.62 6.4 300 9.5 100810 74
2002-05-02 12:21 51°8.381 2°32.61 5.3 298 9.4 100810 74
2002-05-02 12:22 51°8.375 2°32.601 7.4 301 9.4 100810 74
2002-05-02 12:23 51°8.37 2°32.592 5.7 308 9.4 100810 74
2002-05-02 12:24 51°8.365 2°32.582 6.3 302 9.4 100810 75
2002-05-02 12:25 51°8.363 2°32.573 5.2 293 9.4 100810 75
2002-05-02 12:26 51°8.371 2°32.565 4.2 309 9.5 100810 76
2002-05-02 12:27 51°8.387 2°32.566 1.5 323 9.4 100810 75
2002-05-02 12:28 51°8.402 2°32.582 1.4 344 9.3 100820 74
2002-05-02 12:29 51°8.411 2°32.61 5.7 13 9.3 100820 75
2002-05-02 12:30 51°8.412 2°32.649 5.4 22 9.2 100820 76
2002-05-02 12:31 51°8.398 2°32.691 4.9 51 9.3 100830 77
2002-05-02 12:32 51°8.372 2°32.728 6.6 89 9.4 100830 77
2002-05-02 12:33 51°8.336 2°32.752 6 95 9.3 100820 75
2002-05-02 12:34 51°8.298 2°32.763 5.8 116 9.2 100830 75
2002-05-02 12:35 51°8.265 2°32.763 6.4 120 9.2 100830 76
2002-05-02 12:36 51°8.214 2°32.769 4.7 93 9.2 100820 77
2002-05-02 12:37 51°8.147 2°32.867 3.2 85 9.2 100830 77
2002-05-02 12:38 51°8.08 2°33.009 3.3 78 9.2 100830 77
2002-05-02 12:39 51°8.038 2°33.102 7.1 24 9.1 100830 76
2002-05-02 12:40 51°8.032 2°33.119 2 347 9.2 100830 77
2002-05-02 12:41 51°8.027 2°33.126 2.4 357 9.2 100830 77
2002-05-02 12:42 51°8.023 2°33.132 1.5 348 9.2 100840 77
2002-05-02 12:43 51°8.03 2°33.139 9 298 9.1 100830 77
2002-05-02 12:44 51°8.068 2°33.094 9.1 249 9.1 100820 76
2002-05-02 12:45 51°8.096 2°33.028 7.3 280 9.1 100830 77
2002-05-02 12:46 51°8.086 2°33.021 5 306 9.1 100830 76
2002-05-02 12:47 51°8.077 2°33.017 2.1 319 9.1 100840 76
2002-05-02 12:48 51°8.069 2°33.015 4.7 300 9.1 100840 77
2002-05-02 12:49 51°8.061 2°33.016 4 321 9.1 100840 76
2002-05-02 12:50 51°8.052 2°33.017 2.6 307 9.1 100840 75
2002-05-02 12:51 51°8.043 2°33.019 3.5 309 9.1 100850 74
2002-05-02 12:52 51°8.035 2°33.02 5.6 298 9.2 100840 75
2002-05-02 12:53 51°8.027 2°33.021 5.6 300 9.2 100840 75
2002-05-02 12:54 51°8.018 2°33.023 5.5 303 9.2 100840 74
2002-05-02 12:55 51°8.009 2°33.025 6.3 302 9.2 100840 75
2002-05-02 12:56 51°8 2°33.027 5.4 300 9.3 100850 75
2002-05-02 12:57 51°7.991 2°33.03 5.1 318 9.3 100850 75
2002-05-02 12:58 51°7.98 2°33.032 4.6 301 9.3 100850 74
2002-05-02 12:59 51°7.971 2°33.034 3.8 310 9.3 100850 75
2002-05-02 13:00 51°7.96 2°33.036 3.9 305 9.2 100850 74
2002-05-02 13:01 51°7.95 2°33.039 4.7 302 9.2 100850 73
2002-05-02 13:02 51°7.947 2°33.046 6.2 293 9.1 100860 75
2002-05-02 13:03 51°7.999 2°33.077 8.6 278 9.1 100850 76
2002-05-02 13:04 51°8.066 2°33.043 7.8 232 9.2 100850 77
2002-05-02 13:05 51°8.074 2°33.002 6.6 226 9.1 100860 76
2002-05-02 13:06 51°8.071 2°32.987 7.7 237 9.1 100860 77
2002-05-02 13:07 51°8.066 2°32.978 6.3 239 9 100870 75
2002-05-02 13:08 51°8.06 2°32.973 5.8 238 8.9 100870 76
2002-05-02 13:09 51°8.052 2°32.971 6.6 239 8.9 100870 77
2002-05-02 13:10 51°8.046 2°32.97 7.4 251 8.9 100870 78
2002-05-02 13:11 51°8.043 2°32.971 7.4 278 8.9 100870 78
2002-05-02 13:12 51°8.046 2°32.976 6.6 291 8.8 100860 78
2002-05-02 13:13 51°8.053 2°32.987 7.1 294 8.7 100870 79
2002-05-02 13:14 51°8.063 2°33.001 6.2 297 8.7 100870 79
2002-05-02 13:15 51°8.074 2°33.02 4.4 314 8.8 100870 81
2002-05-02 13:16 51°8.085 2°33.046 2.5 326 8.8 100870 80
2002-05-02 13:17 51°8.094 2°33.076 1.5 341 8.7 100880 80
2002-05-02 13:18 51°8.102 2°33.112 0.7 354 8.7 100870 81
2002-05-02 13:19 51°8.104 2°33.152 4.1 358 8.7 100880 81
2002-05-02 13:20 51°8.098 2°33.195 3.8 16 8.7 100880 81
2002-05-02 13:21 51°8.08 2°33.235 4.3 62 8.8 100880 83
2002-05-02 13:22 51°8.051 2°33.263 3.9 111 9 100880 83
2002-05-02 13:23 51°7.976 2°33.164 9.5 206 8.9 100870 81
2002-05-02 13:24 51°7.947 2°32.84 12.3 217 8.8 100850 80
2002-05-02 13:25 51°7.887 2°32.514 10.4 202 8.7 100850 80
2002-05-02 13:26 51°7.778 2°32.203 9.5 207 8.6 100870 79
2002-05-02 13:27 51°7.652 2°31.911 10.4 200 8.6 100870 79
2002-05-02 13:28 51°7.505 2°31.644 9 200 8.7 100870 78
2002-05-02 13:29 51°7.361 2°31.372 8.9 199 8.7 100870 78
2002-05-02 13:30 51°7.201 2°31.127 7.7 189 8.7 100870 77
2002-05-02 13:31 51°7.006 2°30.949 5.1 185 8.7 100870 78
2002-05-02 13:32 51°6.846 2°30.91 3 149 8.7 100880 77
2002-05-02 13:33 51°6.712 2°30.938 3.2 157 8.7 100880 78
2002-05-02 13:34 51°6.582 2°30.952 3.5 141 8.7 100880 78
2002-05-02 13:35 51°6.461 2°31.023 1.3 89 8.7 100880 78
2002-05-02 13:36 51°6.412 2°31.239 6.7 278 8.7 100880 79
2002-05-02 13:37 51°6.46 2°31.513 7.4 278 8.7 100880 78
2002-05-02 13:38 51°6.55 2°31.778 7.9 275 8.7 100880 79
2002-05-02 13:39 51°6.641 2°32.055 7.7 257 8.7 100880 79
2002-05-02 13:40 51°6.736 2°32.318 7.9 269 8.7 100880 79
2002-05-02 13:41 51°6.809 2°32.548 5.5 288 8.6 100880 79
2002-05-02 13:42 51°6.847 2°32.688 3.7 311 8.6 100890 79
2002-05-02 13:43 51°6.849 2°32.715 1.8 350 8.6 100890 80
2002-05-02 13:44 51°6.851 2°32.739 0.6 323 8.7 100890 80
2002-05-02 13:45 51°6.852 2°32.768 2.2 307 8.6 100890 80
2002-05-02 13:46 51°6.852 2°32.791 0.2 354 8.7 100890 80
2002-05-02 13:47 51°6.851 2°32.815 1.2 340 8.7 100890 80
2002-05-02 13:48 51°6.851 2°32.838 2.1 347 8.7 100890 81
2002-05-02 13:49 51°6.851 2°32.862 1.6 348 8.6 100890 80
2002-05-02 13:50 51°6.854 2°32.875 4.2 15 8.6 100890 81
2002-05-02 13:51 51°6.859 2°32.898 1 325 8.7 100890 81
2002-05-02 13:52 51°6.859 2°32.947 0.3 333 8.6 100900 81
2002-05-02 13:53 51°6.861 2°32.976 2.8 358 8.7 100890 81
2002-05-02 13:54 51°6.863 2°32.99 3 5 8.7 100890 81
2002-05-02 13:55 51°6.865 2°33.004 2.4 12 8.7 100890 81
2002-05-02 13:56 51°6.87 2°33.018 2.4 20 8.7 100890 81
2002-05-02 13:57 51°6.825 2°33.062 2.4 180 8.7 100890 82
2002-05-02 13:58 51°6.804 2°32.951 5.5 216 8.7 100890 80
2002-05-02 13:59 51°6.836 2°32.779 6.2 211 8.7 100890 80
2002-05-02 14:00 51°6.84 2°32.69 2.3 180 8.7 100890 77
2002-05-02 14:01 51°6.844 2°32.682 2.4 174 8.7 100890 76
2002-05-02 14:02 51°6.848 2°32.677 2.5 172 8.8 100900 75
2002-05-02 14:03 51°6.851 2°32.674 2 176 8.8 100890 75
2002-05-02 14:04 51°6.853 2°32.672 3 176 8.9 100890 75
2002-05-02 14:05 51°6.855 2°32.67 2.2 179 8.8 100890 73
2002-05-02 14:06 51°6.856 2°32.672 2.6 175 8.9 100890 73
2002-05-02 14:07 51°6.855 2°32.675 1.9 157 8.9 100890 73
2002-05-02 14:08 51°6.851 2°32.68 1.7 145 8.9 100890 73
2002-05-02 14:09 51°6.848 2°32.686 2.2 164 9 100890 73
2002-05-02 14:10 51°6.846 2°32.692 2.3 172 9 100890 72
2002-05-02 14:11 51°6.845 2°32.698 2.2 169 9 100890 71
2002-05-02 14:12 51°6.846 2°32.704 1.4 180 9 100890 71
2002-05-02 14:13 51°6.846 2°32.71 1.9 163 9 100890 72
2002-05-02 14:14 51°6.847 2°32.716 1.9 178 9.1 100900 72
2002-05-02 14:15 51°6.849 2°32.723 1.9 175 9.1 100900 71
2002-05-02 14:16 51°6.851 2°32.729 1.6 181 9.1 100900 71
2002-05-02 14:17 51°6.853 2°32.736 2.2 172 9.1 100900 71
2002-05-02 14:18 51°6.855 2°32.742 2.1 164 9.2 100900 71
2002-05-02 14:19 51°6.856 2°32.744 2.1 169 9.2 100900 70
2002-05-02 14:20 51°6.857 2°32.741 2.1 196 9.2 100900 71
2002-05-02 14:21 51°6.86 2°32.738 2 176 9.2 100900 72
2002-05-02 14:22 51°6.862 2°32.731 2 181 9.2 100910 71
2002-05-02 14:23 51°6.864 2°32.723 2 192 9.2 100900 71
2002-05-02 14:24 51°6.865 2°32.714 1.8 183 9.2 100910 69
2002-05-02 14:25 51°6.866 2°32.706 2.2 184 9.2 100910 70
2002-05-02 14:26 51°6.868 2°32.698 1.9 186 9.2 100910 69
2002-05-02 14:27 51°6.838 2°32.622 4.3 204 9.2 100900 70
2002-05-02 14:28 51°6.752 2°32.452 8 220 9.3 100900 72
2002-05-02 14:29 51°6.711 2°32.193 7.5 218 9.3 100900 72
2002-05-02 14:30 51°6.643 2°31.956 6.9 215 9.3 100900 72
2002-05-02 14:31 51°6.553 2°31.73 6.4 216 9.2 100900 72
2002-05-02 14:32 51°6.492 2°31.482 6.8 223 9.2 100900 71
2002-05-02 14:33 51°6.515 2°31.215 7 221 9.2 100900 71
2002-05-02 14:34 51°6.574 2°30.99 5.3 215 9.3 100900 70
2002-05-02 14:35 51°6.678 2°30.909 6.2 233 9.2 100900 69
2002-05-02 14:36 51°6.815 2°30.953 6 244 9.2 100900 69
2002-05-02 14:37 51°6.936 2°31.08 5.7 245 9.3 100900 69
2002-05-02 14:38 51°7.071 2°31.275 7.9 245 9.3 100900 69
2002-05-02 14:39 51°7.221 2°31.564 8.7 246 9.3 100900 70
2002-05-02 14:40 51°7.378 2°31.867 9.2 246 9.3 100900 71
2002-05-02 14:41 51°7.529 2°32.175 7.9 242 9.3 100900 70
2002-05-02 14:42 51°7.676 2°32.492 8.6 245 9.3 100910 71
2002-05-02 14:43 51°7.827 2°32.804 8.6 239 9.3 100910 70
2002-05-02 14:44 51°7.972 2°33.123 8.9 236 9.3 100910 70
2002-05-02 14:45 51°8.113 2°33.448 8.4 232 9.3 100910 70
2002-05-02 14:46 51°8.254 2°33.776 9.1 238 9.3 100910 71
2002-05-02 14:47 51°8.395 2°34.115 9 243 9.3 100910 70
2002-05-02 14:48 51°8.504 2°34.468 8.3 242 9.3 100910 71
2002-05-02 14:49 51°8.605 2°34.835 7.9 241 9.3 100910 71
2002-05-02 14:50 51°8.681 2°35.219 7.4 245 9.3 100910 72
2002-05-02 14:51 51°8.764 2°35.599 7.8 242 9.2 100910 71
2002-05-02 14:52 51°8.845 2°35.979 7.2 245 9.2 100910 71
2002-05-02 14:53 51°8.928 2°36.358 6.8 241 9.2 100910 72
2002-05-02 14:54 51°9.009 2°36.742 6.3 242 9.2 100920 71
2002-05-02 14:55 51°9.064 2°37.052 3.8 248 9.2 100910 71
2002-05-02 14:56 51°9.136 2°37.137 1.4 287 9.2 100920 70
2002-05-02 14:57 51°9.155 2°37.164 2.8 242 9.2 100930 70
2002-05-02 14:58 51°9.174 2°37.181 1.7 232 9.3 100930 70
2002-05-02 14:59 51°9.186 2°37.196 2.4 225 9.3 100920 71
2002-05-02 15:00 51°9.19 2°37.198 2.5 210 9.3 100920 70
2002-05-02 15:01 51°9.186 2°37.193 2.2 213 9.3 100920 71
2002-05-02 15:02 51°9.177 2°37.183 2.5 205 9.3 100920 71
2002-05-02 15:03 51°9.166 2°37.175 1.9 194 9.2 100930 71
2002-05-02 15:04 51°9.158 2°37.175 2.8 198 9.2 100930 72
2002-05-02 15:05 51°9.15 2°37.182 2.4 201 9.2 100930 72
2002-05-02 15:06 51°9.143 2°37.193 1.9 205 9.2 100930 72
2002-05-02 15:07 51°9.139 2°37.207 1.8 203 9.1 100930 72
2002-05-02 15:08 51°9.137 2°37.224 1.9 197 9.2 100930 73
2002-05-02 15:09 51°9.137 2°37.242 2.1 179 9.1 100930 72
2002-05-02 15:10 51°9.136 2°37.262 1.6 185 9.2 100940 72
2002-05-02 15:11 51°9.136 2°37.283 1.8 192 9.2 100940 72
2002-05-02 15:12 51°9.136 2°37.304 1.9 191 9.2 100940 71
2002-05-02 15:13 51°9.137 2°37.326 1.3 196 9.2 100940 71
2002-05-02 15:14 51°9.138 2°37.347 2.2 194 9.2 100940 72
2002-05-02 15:15 51°9.136 2°37.362 2 186 9.2 100940 71
2002-05-02 15:16 51°9.124 2°37.364 3 198 9.2 100940 72
2002-05-02 15:17 51°9.102 2°37.35 2.7 200 9.2 100940 71
2002-05-02 15:18 51°9.09 2°37.345 2.5 205 9.2 100940 72
2002-05-02 15:19 51°9.087 2°37.346 2.3 209 9.3 100940 72
2002-05-02 15:20 51°9.088 2°37.352 2.7 219 9.3 100950 73
2002-05-02 15:21 51°9.093 2°37.362 2.3 225 9.3 100940 73
2002-05-02 15:22 51°9.101 2°37.375 2 225 9.3 100940 72
2002-05-02 15:23 51°9.109 2°37.391 2.1 226 9.4 100940 71
2002-05-02 15:24 51°9.123 2°37.398 2.8 243 9.4 100940 72
2002-05-02 15:25 51°9.139 2°37.4 2.2 242 9.4 100950 72
2002-05-02 15:26 51°9.156 2°37.407 2.5 239 9.4 100940 71
2002-05-02 15:27 51°9.172 2°37.42 1.9 242 9.4 100950 71
2002-05-02 15:28 51°9.186 2°37.432 2.4 240 9.4 100950 71
2002-05-02 15:29 51°9.2 2°37.449 2 232 9.5 100950 71
2002-05-02 15:30 51°9.212 2°37.429 4.1 214 9.5 100950 70
2002-05-02 15:31 51°9.17 2°37.365 4.2 212 9.4 100950 70
2002-05-02 15:32 51°9.107 2°37.271 4.3 216 9.4 100950 70
2002-05-02 15:33 51°9.081 2°37.23 1.8 207 9.4 100940 70
2002-05-02 15:34 51°9.084 2°37.233 2.4 215 9.4 100950 70
2002-05-02 15:35 51°9.091 2°37.24 2 226 9.4 100950 71
2002-05-02 15:36 51°9.1 2°37.25 2 222 9.4 100950 70
2002-05-02 15:37 51°9.108 2°37.256 2.4 212 9.4 100950 70
2002-05-02 15:38 51°9.117 2°37.25 2.9 211 9.4 100940 70
2002-05-02 15:39 51°9.126 2°37.235 2.5 214 9.4 100950 70
2002-05-02 15:40 51°9.133 2°37.215 2.6 219 9.5 100940 71
2002-05-02 15:41 51°9.141 2°37.191 2.6 219 9.5 100950 71
2002-05-02 15:42 51°9.151 2°37.166 2.5 227 9.4 100950 70
2002-05-02 15:43 51°9.165 2°37.143 2.7 226 9.5 100950 71
2002-05-02 15:44 51°9.184 2°37.122 2.7 230 9.5 100950 72
2002-05-02 15:45 51°9.205 2°37.109 2.7 237 9.5 100960 71
2002-05-02 15:46 51°9.23 2°37.101 2.4 243 9.5 100960 72
2002-05-02 15:47 51°9.257 2°37.1 2.5 243 9.5 100960 72
2002-05-02 15:48 51°9.287 2°37.108 2.6 254 9.6 100960 72
2002-05-02 15:49 51°9.327 2°37.122 3.1 267 9.6 100960 71
2002-05-02 15:50 51°9.418 2°37.25 4.1 256 9.6 100960 71
2002-05-02 15:51 51°9.515 2°37.583 5.8 248 9.6 100960 71
2002-05-02 15:52 51°9.616 2°37.961 5.3 245 9.5 100960 72
2002-05-02 15:53 51°9.716 2°38.334 5.3 244 9.5 100960 72
2002-05-02 15:54 51°9.815 2°38.699 5.4 250 9.5 100960 71
2002-05-02 15:55 51°9.916 2°39.075 5 247 9.5 100960 72
2002-05-02 15:56 51°10.016 2°39.443 5.1 245 9.6 100960 72
2002-05-02 15:57 51°10.113 2°39.805 5.1 248 9.6 100960 71
2002-05-02 15:58 51°10.213 2°40.176 4.9 243 9.6 100960 70
2002-05-02 15:59 51°10.311 2°40.543 4.7 246 9.6 100960 70
2002-05-02 16:00 51°10.409 2°40.909 4.3 243 9.6 100970 70
2002-05-02 16:01 51°10.506 2°41.275 4.5 255 9.6 100970 71
2002-05-02 16:02 51°10.603 2°41.64 4.1 246 9.6 100970 71
2002-05-02 16:03 51°10.701 2°42.004 4.6 252 9.6 100970 70
2002-05-02 16:04 51°10.799 2°42.369 4.1 245 9.6 100970 70
2002-05-02 16:05 51°10.896 2°42.732 4.3 243 9.6 100970 70
2002-05-02 16:06 51°10.993 2°43.097 4.4 241 9.6 100970 70
2002-05-02 16:07 51°11.089 2°43.46 4.6 243 9.7 100970 71
2002-05-02 16:08 51°11.185 2°43.821 4.6 236 9.6 100970 71
2002-05-02 16:09 51°11.282 2°44.185 4.8 235 9.6 100980 71
2002-05-02 16:10 51°11.374 2°44.554 4.4 237 9.6 100980 71
2002-05-02 16:11 51°11.464 2°44.926 4.6 237 9.6 100980 71
2002-05-02 16:12 51°11.554 2°45.295 4.6 239 9.6 100980 71
2002-05-02 16:13 51°11.644 2°45.665 4 233 9.6 100980 72
2002-05-02 16:14 51°11.734 2°46.033 4.8 235 9.6 100980 72
2002-05-02 16:15 51°11.825 2°46.404 4.5 230 9.6 100980 72
2002-05-02 16:16 51°11.916 2°46.774 4.3 237 9.6 100980 71
2002-05-02 16:17 51°12.009 2°47.147 4.5 233 9.6 100980 73
2002-05-02 16:18 51°12.101 2°47.514 3.9 235 9.6 100980 72
2002-05-02 16:19 51°12.203 2°47.875 4.1 238 9.6 100980 72
2002-05-02 16:20 51°12.313 2°48.233 4 242 9.6 100980 72
2002-05-02 16:21 51°12.42 2°48.595 4.1 235 9.6 100980 72
2002-05-02 16:22 51°12.55 2°48.936 5 253 9.5 100980 73
2002-05-02 16:23 51°12.689 2°49.272 4.1 253 9.5 100980 73
2002-05-02 16:24 51°12.824 2°49.609 5.1 259 9.6 100980 74
2002-05-02 16:25 51°12.96 2°49.946 4.3 252 9.6 100980 74
2002-05-02 16:26 51°13.095 2°50.285 4.7 259 9.6 100980 74
2002-05-02 16:27 51°13.232 2°50.623 4.9 255 9.6 100980 74
2002-05-02 16:28 51°13.368 2°50.961 4.9 256 9.6 100980 74
2002-05-02 16:29 51°13.502 2°51.299 4.8 259 9.6 100980 74
2002-05-02 16:30 51°13.639 2°51.636 4.9 258 9.6 100980 74
2002-05-02 16:31 51°13.776 2°51.974 4.3 240 9.6 100990 73
2002-05-02 16:32 51°13.919 2°52.305 5.6 254 9.6 100990 74
2002-05-02 16:33 51°14.064 2°52.636 5.2 242 9.6 100990 74
2002-05-02 16:34 51°14.178 2°52.996 5.5 249 9.6 100990 73
2002-05-02 16:35 51°14.267 2°53.355 4.5 250 9.6 100990 73
2002-05-02 16:36 51°14.352 2°53.7 3.8 249 9.6 100990 73
2002-05-02 16:37 51°14.406 2°54.047 3.6 233 9.6 100990 73
2002-05-02 16:38 51°14.427 2°54.392 3.4 226 9.6 100990 73
2002-05-02 16:39 51°14.423 2°54.732 3.7 234 9.6 100990 73
2002-05-02 16:40 51°14.37 2°55.038 3.8 204 9.7 100990 73
2002-05-02 16:41 51°14.274 2°55.236 2.5 183 9.7 100990 73
2002-05-02 16:42 51°14.197 2°55.346 3.3 148 9.7 100990 74
2002-05-02 16:43 51°14.137 2°55.413 1.9 197 9.7 100990 74
2002-05-02 16:44 51°14.076 2°55.462 1.6 151 9.6 101000 73
2002-05-02 16:45 51°14.016 2°55.502 1.7 174 9.6 101000 73
2002-05-02 16:46 51°13.952 2°55.544 2.2 172 9.7 101000 72
2002-05-02 16:47 51°13.886 2°55.596 1.4 180 9.7 101000 71
2002-05-02 16:48 51°13.821 2°55.64 2.8 212 9.7 101000 72
2002-05-02 16:49 51°13.77 2°55.685 1.4 177 9.8 101000 72
2002-05-02 16:50 51°13.736 2°55.738 1.6 134 9.8 101000 72
2002-05-02 16:51 51°13.713 2°55.794 1 53 9.8 101000 72
2002-05-02 16:52 51°13.696 2°55.849 1.8 96 9.8 101010 71
2002-05-02 16:53 51°13.688 2°55.892 2.1 66 9.8 101010 71
2002-05-02 16:54 51°13.687 2°55.901 1.7 68 9.8 101010 71